Weather reports worldwide

Advertisment
Cartagena, Spain (8434): temperature & dewpoint: 09.10.2019 20:00:00 - 15.10.2019 20:00:00 (CEST)Cartagena, Spain (8434): wind speed & gusts: 09.10.2019 20:00:00 - 15.10.2019 20:00:00 (CEST)Cartagena, Spain (8434): wind direction: 09.10.2019 20:00:00 - 15.10.2019 20:00:00 (CEST)Cartagena, Spain (8434): precipitation: 09.10.2019 20:00:00 - 15.10.2019 20:00:00 (CEST)
Date & Time tt [°C] td [°C] ff [km/h] ff [kn] fx [km/h] fx [kn] dd rr [mm]
15.10.2019 20:00:00 - - - - - - - -
15.10.2019 19:00:00 20,9 8,5 11 6 21 12 S 0,0
15.10.2019 18:00:00 21,4 8,3 10 5 21 11 SSW 0,0
15.10.2019 17:00:00 22,3 7,3 8 5 18 10 S 0,0
15.10.2019 16:00:00 22,1 5,9 10 5 19 10 SW 0,0
15.10.2019 15:00:00 22,9 3,5 4 2 16 8 NE 0,0
15.10.2019 14:00:00 22,6 4,6 6 3 21 11 N -
15.10.2019 13:00:00 21,7 6,4 6 4 16 9 N 0,0
15.10.2019 12:00:00 20,7 6,6 7 4 20 11 N 0,0
15.10.2019 11:00:00 19,4 7,2 9 5 20 11 N 0,0
15.10.2019 10:00:00 18,0 7,1 4 2 10 5 ENE 0,0
15.10.2019 09:00:00 16,6 7,3 0 0 6 4 SE 0,0
15.10.2019 08:00:00 17,1 7,2 2 1 8 5 NNE -
15.10.2019 07:00:00 17,4 7,2 1 1 6 4 W 0,0
15.10.2019 06:00:00 18,2 7,6 4 2 16 9 NNW 0,0
15.10.2019 05:00:00 18,4 8,4 5 3 19 11 NW 0,0
15.10.2019 04:00:00 18,7 9,2 11 6 22 12 NW 0,0
15.10.2019 03:00:00 19,6 9,5 6 4 27 15 N 0,0
15.10.2019 02:00:00 22,0 9,5 9 5 19 10 WNW -
15.10.2019 01:00:00 21,9 10,7 3 2 10 5 W 0,0
15.10.2019 00:00:00 22,5 12,7 2 1 8 4 NE 0,0
14.10.2019 23:00:00 23,1 12,7 4 2 9 5 N 0,0
14.10.2019 22:00:00 23,6 17,3 4 2 15 8 SSW 0,0
14.10.2019 21:00:00 23,7 17,7 7 4 16 8 SW 0,0
14.10.2019 20:00:00 23,8 16,8 1 1 12 7 S -
14.10.2019 19:00:00 24,0 16,8 5 3 23 12 SSW 0,0
14.10.2019 18:00:00 24,6 17,3 6 4 17 9 S 0,0
14.10.2019 17:00:00 24,4 18,1 8 4 21 11 S 0,0
14.10.2019 16:00:00 24,8 18,0 7 4 20 11 S 0,0
14.10.2019 15:00:00 24,0 18,6 7 4 21 11 S 0,0
14.10.2019 14:00:00 24,1 19,8 3 2 8 5 S -
14.10.2019 13:00:00 22,6 19,8 4 2 15 8 WNW 0,2
14.10.2019 12:00:00 22,5 19,5 5 3 18 10 NNW 0,4
14.10.2019 11:00:00 21,4 18,8 10 5 21 11 W 0,0
14.10.2019 10:00:00 21,2 18,9 5 3 15 8 NNW 0,0
14.10.2019 09:00:00 20,5 18,6 4 2 15 8 NNW 0,0
14.10.2019 08:00:00 20,2 18,3 6 3 20 11 NW -
14.10.2019 07:00:00 20,1 18,2 6 3 18 10 NW 0,0
14.10.2019 06:00:00 20,0 18,1 8 4 16 9 NW 0,0
14.10.2019 05:00:00 20,1 18,2 1 1 11 6 NW 0,0
14.10.2019 04:00:00 20,6 18,7 4 2 8 5 NW 0,0
14.10.2019 03:00:00 20,8 18,9 4 2 9 5 NNW 0,0
14.10.2019 02:00:00 21,1 19,0 4 2 9 5 NNW -
14.10.2019 01:00:00 21,4 19,1 3 2 11 6 NW 0,0
14.10.2019 00:00:00 21,5 18,7 4 2 11 6 NW 0,0
13.10.2019 23:00:00 22,3 18,9 2 1 6 4 N 0,0
13.10.2019 22:00:00 22,9 19,1 1 1 6 3 NNE 0,0
13.10.2019 21:00:00 23,3 19,2 0 0 6 3 NE 0,0
13.10.2019 20:00:00 23,5 19,4 3 2 10 6 S -
13.10.2019 19:00:00 24,1 19,6 5 3 16 8 S 0,0
13.10.2019 18:00:00 24,5 19,8 6 3 16 9 S 0,0
13.10.2019 17:00:00 24,5 19,6 8 4 20 11 SSW 0,0
13.10.2019 16:00:00 25,0 19,1 8 4 15 8 S 0,0
13.10.2019 15:00:00 24,7 18,9 9 5 18 10 S 0,0
13.10.2019 14:00:00 25,3 17,0 8 4 16 9 S -
13.10.2019 13:00:00 25,2 16,4 5 3 - - SSW -
13.10.2019 12:00:00 24,5 17,0 3 2 9 5 NNE 0,0
13.10.2019 11:00:00 23,2 18,5 6 3 9 5 N 0,0
13.10.2019 10:00:00 21,2 18,4 5 3 8 4 NNE 0,0
13.10.2019 09:00:00 20,4 18,5 4 2 12 7 NNW 0,0
13.10.2019 08:00:00 20,5 18,6 6 3 - - NW -
13.10.2019 07:00:00 20,6 18,9 4 2 11 6 NNW 0,0
13.10.2019 06:00:00 20,5 18,8 7 4 14 7 NW 0,0
13.10.2019 05:00:00 20,6 18,9 5 3 12 7 NW 0,0
13.10.2019 04:00:00 21,1 19,2 3 2 9 5 NNW 0,0
13.10.2019 03:00:00 21,4 19,5 4 2 11 6 NW 0,0
13.10.2019 02:00:00 21,8 19,5 1 1 6 3 NNW -
13.10.2019 01:00:00 22,0 19,4 4 2 11 6 NW 0,0
13.10.2019 00:00:00 22,1 19,5 3 2 10 6 NW 0,0
12.10.2019 23:00:00 22,2 19,4 5 3 13 7 NNW 0,0
12.10.2019 22:00:00 22,8 19,8 5 3 9 5 NW 0,0
12.10.2019 21:00:00 23,8 20,3 4 2 10 5 N 0,0
12.10.2019 20:00:00 24,4 19,9 5 3 17 9 N -
12.10.2019 19:00:00 25,1 19,9 6 3 16 9 NNE 0,0
12.10.2019 18:00:00 24,8 19,4 8 4 20 11 NE 0,0
12.10.2019 17:00:00 25,3 19,0 8 4 20 11 ENE 0,0
12.10.2019 16:00:00 25,6 19,3 6 4 21 11 NE 0,0
12.10.2019 15:00:00 25,5 19,6 6 3 17 9 NE 0,0
12.10.2019 14:00:00 24,8 19,4 8 4 20 11 N -
12.10.2019 13:00:00 24,2 19,5 6 3 18 10 N 0,0
12.10.2019 12:00:00 23,9 19,2 6 3 18 10 N 0,0
12.10.2019 11:00:00 22,9 18,4 8 4 21 11 N 0,0
12.10.2019 10:00:00 21,5 18,1 6 3 16 9 NW 0,0
12.10.2019 09:00:00 20,9 17,7 7 4 15 8 NNW 0,0
12.10.2019 08:00:00 20,8 17,6 6 4 15 8 NW -
12.10.2019 07:00:00 20,9 17,7 6 3 14 8 NW 0,0
12.10.2019 06:00:00 21,2 18,0 5 3 16 9 NNW 0,0
12.10.2019 05:00:00 21,1 17,9 7 4 16 9 NNW 0,0
12.10.2019 04:00:00 21,1 17,9 6 3 17 9 NNW 0,0
12.10.2019 03:00:00 21,3 17,9 6 3 19 10 NNW 0,0
12.10.2019 02:00:00 21,3 17,9 5 3 14 8 NNW -
12.10.2019 01:00:00 21,8 18,0 4 2 18 10 NW 0,0
12.10.2019 00:00:00 22,1 17,9 6 3 17 9 NNW 0,0
11.10.2019 23:00:00 22,4 18,0 5 3 14 8 NNW 0,0
11.10.2019 22:00:00 22,9 18,0 5 3 16 8 N 0,0
11.10.2019 21:00:00 23,2 18,1 6 3 17 9 N 0,0
11.10.2019 20:00:00 23,8 17,8 2 1 18 10 NNE -
11.10.2019 19:00:00 24,1 17,8 7 4 20 11 NE 0,0
11.10.2019 18:00:00 24,4 17,6 7 4 - - NNE -
11.10.2019 17:00:00 24,6 17,1 10 6 - - NE -
11.10.2019 16:00:00 25,6 17,3 8 4 23 12 NNE 0,0
11.10.2019 15:00:00 25,4 16,8 10 5 25 13 NE 0,0
11.10.2019 14:00:00 24,9 16,9 12 6 24 13 NE -
11.10.2019 13:00:00 24,7 17,9 7 4 20 11 NNE 0,0
11.10.2019 12:00:00 24,1 17,6 10 6 22 12 NNE 0,0
11.10.2019 11:00:00 23,3 18,0 6 3 20 11 N 0,0
11.10.2019 10:00:00 21,0 17,6 5 3 15 8 N 0,0
11.10.2019 09:00:00 19,9 16,9 4 2 14 7 NNW 0,0
11.10.2019 08:00:00 19,8 16,8 3 2 14 8 NNW -
11.10.2019 07:00:00 19,7 16,7 6 3 14 7 N 0,0
11.10.2019 06:00:00 19,8 16,8 4 2 12 7 NNW 0,0
11.10.2019 05:00:00 20,2 16,8 4 2 9 5 NNW 0,0
11.10.2019 04:00:00 20,4 17,0 3 1 9 5 N 0,0
11.10.2019 03:00:00 20,6 17,2 1 1 7 4 N 0,0
11.10.2019 02:00:00 20,9 17,1 4 2 9 5 N -
11.10.2019 01:00:00 21,1 16,9 3 1 7 4 NW 0,0
11.10.2019 00:00:00 21,7 16,9 4 2 9 5 NW 0,0
10.10.2019 23:00:00 22,4 17,1 3 2 9 5 N 0,0
10.10.2019 22:00:00 22,8 16,8 3 2 11 6 N 0,0
10.10.2019 21:00:00 23,2 16,5 4 2 16 9 NNE 0,0
10.10.2019 20:00:00 23,6 16,1 6 3 20 11 NE -
10.10.2019 19:00:00 24,5 15,4 7 4 21 11 NE 0,0
10.10.2019 18:00:00 25,2 16,1 9 5 25 13 ENE 0,0
10.10.2019 17:00:00 25,6 16,2 8 5 - - ENE -
10.10.2019 16:00:00 25,9 16,5 10 5 22 12 ENE 0,0
10.10.2019 15:00:00 26,0 16,5 8 4 20 11 ENE 0,0
10.10.2019 14:00:00 - - - - - - - -
10.10.2019 13:00:00 - - - - - - - -
10.10.2019 12:00:00 24,4 16,4 8 4 18 10 ENE 0,0
10.10.2019 11:00:00 23,7 18,1 3 2 10 6 N 0,0
10.10.2019 10:00:00 21,4 18,0 4 2 9 5 N 0,0
10.10.2019 09:00:00 20,0 17,4 2 1 6 3 N 0,0
10.10.2019 08:00:00 19,9 17,3 1 1 8 4 N -
10.10.2019 07:00:00 19,9 17,3 1 1 6 3 N 0,0
10.10.2019 06:00:00 20,0 17,2 1 1 6 4 N 0,0
10.10.2019 05:00:00 20,1 17,1 4 2 9 5 N 0,0
10.10.2019 04:00:00 20,3 16,9 4 2 8 4 N 0,0
10.10.2019 03:00:00 20,4 16,8 3 2 8 5 N 0,0
10.10.2019 02:00:00 20,6 16,8 4 2 9 5 N -
10.10.2019 01:00:00 21,3 16,9 2 1 5 3 N 0,0
10.10.2019 00:00:00 21,9 17,1 2 1 4 2 NE 0,0
09.10.2019 23:00:00 22,4 17,3 0 0 4 2 N 0,0
09.10.2019 22:00:00 22,8 17,5 3 1 7 4 ESE 0,0
09.10.2019 21:00:00 22,9 17,4 2 1 11 6 SSW 0,0
09.10.2019 20:00:00 23,0 17,2 6 3 15 8 SSW -

tt = temperature
td = dewpoint
ff = wind speed
fx = gusts
dd = wind direction
rr = precipitation

Next stations